createdAt,value
2017-08-16T00:00:54.645Z,19.97
2017-08-16T00:03:23.780Z,16.87
2017-08-16T00:05:52.893Z,17.07
2017-08-16T00:08:22.023Z,22.70
2017-08-16T00:10:51.149Z,22.60
2017-08-16T00:13:20.264Z,19.83
2017-08-16T00:15:49.383Z,24.80
2017-08-16T00:18:18.604Z,24.03
2017-08-16T00:20:47.721Z,20.93
2017-08-16T00:23:16.892Z,24.63
2017-08-16T00:25:46.012Z,21.23
2017-08-16T00:28:15.127Z,20.83
2017-08-16T00:30:44.249Z,20.83
2017-08-16T00:33:13.361Z,20.20
2017-08-16T00:35:42.483Z,21.93
2017-08-16T00:38:11.609Z,25.77
2017-08-16T00:40:40.730Z,19.03
2017-08-16T00:43:09.837Z,21.70
2017-08-16T00:45:38.960Z,22.43
2017-08-16T00:48:08.081Z,19.57
2017-08-16T00:50:37.211Z,26.93
2017-08-16T00:53:06.908Z,25.50
2017-08-16T00:55:36.052Z,25.63
2017-08-16T00:58:05.166Z,26.23
2017-08-16T01:00:34.319Z,25.77
2017-08-16T01:03:03.450Z,35.37
2017-08-16T01:05:32.557Z,26.53
2017-08-16T01:08:02.281Z,27.23
2017-08-16T01:10:31.396Z,28.10
2017-08-16T01:13:00.561Z,30.43
2017-08-16T01:15:29.670Z,24.20
2017-08-16T01:17:58.850Z,22.00
2017-08-16T01:20:27.966Z,24.70
2017-08-16T01:22:57.074Z,29.70
2017-08-16T01:25:31.143Z,26.03
2017-08-16T01:28:00.250Z,27.77
2017-08-16T01:30:29.377Z,21.53
2017-08-16T01:32:58.488Z,24.37
2017-08-16T01:35:27.624Z,26.83
2017-08-16T01:37:56.728Z,26.13
2017-08-16T01:40:25.856Z,24.03
2017-08-16T01:42:54.972Z,31.57
2017-08-16T01:45:24.100Z,25.00
2017-08-16T01:47:53.226Z,23.37
2017-08-16T01:50:22.369Z,22.50
2017-08-16T01:52:51.487Z,24.13
2017-08-16T01:55:20.660Z,28.37
2017-08-16T01:57:49.785Z,24.97
2017-08-16T02:00:18.911Z,34.10
2017-08-16T02:02:48.009Z,41.33
2017-08-16T02:05:17.140Z,36.60
2017-08-16T02:07:46.336Z,35.80
2017-08-16T02:10:15.454Z,38.57
2017-08-16T02:12:44.576Z,35.80
2017-08-16T02:15:13.692Z,48.47
2017-08-16T02:17:42.835Z,41.63
2017-08-16T02:20:11.948Z,43.83
2017-08-16T02:22:41.080Z,35.13
2017-08-16T02:25:10.200Z,43.30
2017-08-16T02:27:39.321Z,29.03
2017-08-16T02:30:08.449Z,34.13
2017-08-16T02:32:37.569Z,31.47
2017-08-16T02:35:06.921Z,31.97
2017-08-16T02:37:36.041Z,34.63
2017-08-16T02:40:05.173Z,26.73
2017-08-16T02:42:34.297Z,27.10
2017-08-16T02:45:03.415Z,30.93
2017-08-16T02:47:32.545Z,34.37
2017-08-16T02:50:01.693Z,33.50
2017-08-16T02:52:30.819Z,36.23
2017-08-16T02:54:59.934Z,31.13
2017-08-16T02:57:29.056Z,31.80
2017-08-16T02:59:58.188Z,32.80
2017-08-16T03:02:27.300Z,28.83
2017-08-16T03:04:56.585Z,32.33
2017-08-16T03:07:25.699Z,41.27
2017-08-16T03:09:54.873Z,44.90
2017-08-16T03:12:24.006Z,35.00
2017-08-16T03:14:53.128Z,41.50
2017-08-16T03:17:22.256Z,46.57
2017-08-16T03:19:51.364Z,44.10
2017-08-16T03:22:20.485Z,39.40
2017-08-16T03:24:49.604Z,39.87
2017-08-16T03:27:18.729Z,39.17
2017-08-16T03:29:47.845Z,36.70
2017-08-16T03:32:16.969Z,41.63
2017-08-16T03:34:46.220Z,42.27
2017-08-16T03:37:15.338Z,43.50
2017-08-16T03:39:44.452Z,46.60
2017-08-16T03:42:13.577Z,37.80
2017-08-16T03:44:42.854Z,42.10
2017-08-16T03:47:12.683Z,37.97
2017-08-16T03:49:41.794Z,42.60
2017-08-16T03:52:10.908Z,46.97
2017-08-16T03:54:40.036Z,46.53
2017-08-16T03:57:09.180Z,43.73
2017-08-16T03:59:38.470Z,41.83
2017-08-16T04:02:07.585Z,42.40
2017-08-16T04:04:36.697Z,44.73
2017-08-16T04:07:05.825Z,44.27
2017-08-16T04:09:34.966Z,40.80
2017-08-16T04:12:04.081Z,42.93
2017-08-16T04:14:33.346Z,47.33
2017-08-16T04:17:02.540Z,39.77
2017-08-16T04:19:31.688Z,44.87
2017-08-16T04:22:00.806Z,43.30
2017-08-16T04:24:29.925Z,42.20
2017-08-16T04:26:59.044Z,40.23
2017-08-16T04:29:28.178Z,38.00
2017-08-16T04:31:57.289Z,38.10
2017-08-16T04:34:26.434Z,42.20
2017-08-16T04:36:55.549Z,42.40
2017-08-16T04:39:24.666Z,38.73
2017-08-16T04:41:53.784Z,40.10
2017-08-16T04:44:23.024Z,40.20
2017-08-16T04:46:52.151Z,42.73
2017-08-16T04:49:21.315Z,39.27
2017-08-16T04:51:50.430Z,39.20
2017-08-16T04:54:19.574Z,39.53
2017-08-16T04:56:48.789Z,41.57
2017-08-16T04:59:17.904Z,37.60
2017-08-16T05:01:47.051Z,36.53
2017-08-16T05:04:16.296Z,36.07
2017-08-16T05:06:45.409Z,40.37
2017-08-16T05:09:14.526Z,39.67
2017-08-16T05:11:43.644Z,35.87
2017-08-16T05:14:12.920Z,38.27
2017-08-16T05:16:42.057Z,42.40
2017-08-16T05:19:11.192Z,36.97
2017-08-16T05:21:40.313Z,40.60
2017-08-16T05:24:09.441Z,47.53
2017-08-16T05:26:38.562Z,44.90
2017-08-16T05:29:07.681Z,45.10
2017-08-16T05:31:36.820Z,50.13
2017-08-16T05:34:05.937Z,40.87
2017-08-16T05:36:35.077Z,36.50
2017-08-16T05:39:04.193Z,39.50
2017-08-16T05:41:33.322Z,41.60
2017-08-16T05:44:02.455Z,41.30
2017-08-16T05:46:31.566Z,42.33
2017-08-16T05:49:00.695Z,49.00
2017-08-16T05:51:29.809Z,41.90
2017-08-16T05:53:58.946Z,43.10
2017-08-16T05:56:28.056Z,42.87
2017-08-16T05:58:57.185Z,47.40
2017-08-16T06:01:26.534Z,46.93
2017-08-16T06:03:55.644Z,49.20
2017-08-16T06:06:24.985Z,48.70
2017-08-16T06:08:54.089Z,48.10
2017-08-16T06:11:23.220Z,48.70
2017-08-16T06:13:52.334Z,48.50
2017-08-16T06:16:21.464Z,51.43
2017-08-16T06:18:50.584Z,49.57
2017-08-16T06:21:19.703Z,54.33
2017-08-16T06:23:48.825Z,56.13
2017-08-16T06:26:17.944Z,56.90
2017-08-16T06:28:47.061Z,53.90
2017-08-16T06:31:16.183Z,65.90
2017-08-16T06:33:45.318Z,62.03
2017-08-16T06:36:14.589Z,60.60
2017-08-16T06:38:43.714Z,65.90
2017-08-16T06:41:12.837Z,61.27
2017-08-16T06:43:41.961Z,50.43
2017-08-16T06:46:11.080Z,55.43
2017-08-16T06:48:40.225Z,55.30
2017-08-16T06:51:09.341Z,68.90
2017-08-16T06:53:38.462Z,59.67
2017-08-16T06:56:07.660Z,67.40
2017-08-16T06:58:36.769Z,63.90
2017-08-16T07:01:05.903Z,67.73
2017-08-16T07:03:35.085Z,70.57
2017-08-16T07:06:04.385Z,74.83
2017-08-16T07:08:33.517Z,70.20
2017-08-16T07:11:07.667Z,67.30
2017-08-16T07:13:36.827Z,67.20
2017-08-16T07:16:05.944Z,68.67
2017-08-16T07:18:35.126Z,62.53
2017-08-16T07:21:04.264Z,68.90
2017-08-16T07:23:33.386Z,71.93
2017-08-16T07:26:02.509Z,68.23
2017-08-16T07:28:31.635Z,71.60
2017-08-16T07:31:00.750Z,69.60
2017-08-16T07:33:29.874Z,68.93
2017-08-16T07:35:59.000Z,62.33
2017-08-16T07:38:28.125Z,63.40
2017-08-16T07:40:57.258Z,63.10
2017-08-16T07:43:26.397Z,75.67
2017-08-16T07:45:55.532Z,68.27
2017-08-16T07:48:24.717Z,59.13
2017-08-16T07:50:53.835Z,62.97
2017-08-16T07:53:22.952Z,71.43
2017-08-16T07:55:52.077Z,59.43
2017-08-16T07:58:21.200Z,45.00
2017-08-16T08:00:50.357Z,60.30
2017-08-16T08:03:19.472Z,56.97
2017-08-16T08:05:48.596Z,49.73
2017-08-16T08:08:17.709Z,51.20
2017-08-16T08:10:46.957Z,52.47
2017-08-16T08:13:16.117Z,50.10
2017-08-16T08:15:45.224Z,47.07
2017-08-16T08:18:14.352Z,44.30
2017-08-16T08:20:43.592Z,40.03
2017-08-16T08:25:48.289Z,27.17
2017-08-16T08:28:17.429Z,24.67
2017-08-16T08:30:46.612Z,20.03
2017-08-16T08:33:15.773Z,14.70
2017-08-16T08:38:20.573Z,20.33
2017-08-16T08:40:49.694Z,20.50
2017-08-16T08:43:18.832Z,19.63
2017-08-16T08:45:48.072Z,20.47
2017-08-16T08:48:17.209Z,20.27
2017-08-16T08:50:46.334Z,18.37
2017-08-16T08:53:15.470Z,24.63
2017-08-16T08:55:44.632Z,21.40
2017-08-16T08:58:13.810Z,24.13
2017-08-16T09:00:42.948Z,19.20
2017-08-16T09:03:12.091Z,18.13
2017-08-16T09:05:41.216Z,22.37
2017-08-16T09:08:10.343Z,25.40
2017-08-16T09:10:39.508Z,20.83
2017-08-16T09:13:08.639Z,19.57
2017-08-16T09:15:37.753Z,22.90
2017-08-16T09:18:06.894Z,24.80
2017-08-16T09:20:36.024Z,27.03
2017-08-16T09:23:05.244Z,27.97
2017-08-16T09:25:34.405Z,31.03
2017-08-16T09:28:03.503Z,23.10
2017-08-16T09:30:32.632Z,30.53
2017-08-16T09:33:01.751Z,20.17
2017-08-16T09:35:30.877Z,18.07
2017-08-16T09:38:00.007Z,19.23
2017-08-16T09:40:29.116Z,18.23
2017-08-16T09:42:58.253Z,24.17
2017-08-16T09:45:27.380Z,20.27
2017-08-16T09:47:57.004Z,21.03
2017-08-16T09:50:26.132Z,19.87
2017-08-16T09:52:55.267Z,24.30
2017-08-16T09:55:24.380Z,23.53
2017-08-16T09:57:53.513Z,25.33
2017-08-16T10:00:23.248Z,17.80
2017-08-16T10:02:52.377Z,19.40
2017-08-16T10:05:21.504Z,22.30
2017-08-16T10:07:50.620Z,21.80
2017-08-16T10:10:19.773Z,21.63
2017-08-16T10:12:48.885Z,25.63
2017-08-16T10:15:18.017Z,20.23
2017-08-16T10:17:47.138Z,23.33
2017-08-16T10:20:16.261Z,17.90
2017-08-16T10:22:45.383Z,18.50
2017-08-16T10:25:14.510Z,17.27
2017-08-16T10:27:43.634Z,18.77
2017-08-16T10:30:12.749Z,14.30
2017-08-16T10:32:41.880Z,18.00
2017-08-16T10:35:10.989Z,15.93
2017-08-16T10:37:40.106Z,21.70
2017-08-16T10:40:09.788Z,17.93
2017-08-16T10:42:39.661Z,21.90
2017-08-16T10:45:08.794Z,15.90
2017-08-16T10:47:37.909Z,17.93
2017-08-16T10:50:07.069Z,17.20
2017-08-16T10:52:36.188Z,21.00
2017-08-16T10:55:05.317Z,15.30
2017-08-16T10:57:34.437Z,21.47
2017-08-16T11:00:03.572Z,16.63
2017-08-16T11:02:33.388Z,21.30
2017-08-16T11:05:02.518Z,15.03
2017-08-16T11:07:31.676Z,15.70
2017-08-16T11:10:00.954Z,16.57
2017-08-16T11:12:30.081Z,15.90
2017-08-16T11:14:59.233Z,19.83
2017-08-16T11:17:28.405Z,16.73
2017-08-16T11:19:57.636Z,16.50
2017-08-16T11:22:26.957Z,21.00
2017-08-16T11:24:56.077Z,15.83
2017-08-16T11:27:25.232Z,16.07
2017-08-16T11:29:54.346Z,10.87
2017-08-16T11:32:23.462Z,12.60
2017-08-16T11:34:52.589Z,11.70
2017-08-16T11:37:21.705Z,9.73
2017-08-16T11:39:50.820Z,10.60
2017-08-16T11:42:19.936Z,9.37
2017-08-16T11:44:49.045Z,9.40
2017-08-16T11:47:18.161Z,9.40
2017-08-16T11:49:47.311Z,15.37
2017-08-16T11:52:16.441Z,8.23
2017-08-16T11:54:45.552Z,8.87
2017-08-16T11:57:14.657Z,8.70
2017-08-16T11:59:43.801Z,9.20
2017-08-16T12:02:13.058Z,8.20
2017-08-16T12:04:42.177Z,8.00
2017-08-16T12:07:11.307Z,5.97
2017-08-16T12:09:40.415Z,6.63
2017-08-16T12:12:09.527Z,7.30
2017-08-16T12:14:38.628Z,6.73
2017-08-16T12:17:07.738Z,9.60
2017-08-16T12:19:36.848Z,9.73
2017-08-16T12:22:05.976Z,7.30
2017-08-16T12:24:35.096Z,7.50
2017-08-16T12:27:04.431Z,6.70
2017-08-16T12:29:33.660Z,6.93
2017-08-16T12:32:02.785Z,7.73
2017-08-16T12:34:31.897Z,5.93
2017-08-16T12:37:01.099Z,7.37
2017-08-16T12:39:30.239Z,8.00
2017-08-16T12:41:59.342Z,6.30
2017-08-16T12:44:28.445Z,7.43
2017-08-16T12:46:57.566Z,9.20
2017-08-16T12:49:26.872Z,7.93
2017-08-16T12:51:56.070Z,18.10
2017-08-16T12:54:25.236Z,10.20
2017-08-16T12:56:54.346Z,9.27
2017-08-16T12:59:23.462Z,8.47
2017-08-16T13:01:52.584Z,7.13
2017-08-16T13:04:21.698Z,9.40
2017-08-16T13:06:50.814Z,5.93
2017-08-16T13:09:19.950Z,6.13
2017-08-16T13:11:49.105Z,5.93
2017-08-16T13:14:18.211Z,7.00
2017-08-16T13:16:47.342Z,9.10
2017-08-16T13:19:16.460Z,8.57
2017-08-16T13:21:45.576Z,9.23
2017-08-16T13:24:14.700Z,11.57
2017-08-16T13:26:43.808Z,9.60
2017-08-16T13:29:13.509Z,7.63
2017-08-16T13:31:42.754Z,8.37
2017-08-16T13:34:11.893Z,14.27
2017-08-16T13:36:41.040Z,9.13
2017-08-16T13:39:10.208Z,12.83
2017-08-16T13:41:39.540Z,10.93
2017-08-16T13:44:08.653Z,7.53
2017-08-16T13:46:37.800Z,7.63
2017-08-16T13:49:06.896Z,7.73
2017-08-16T13:51:36.020Z,10.83
2017-08-16T13:54:05.150Z,6.33
2017-08-16T13:56:34.720Z,4.80
2017-08-16T13:59:03.845Z,17.93
2017-08-16T14:01:32.959Z,6.20
2017-08-16T14:04:02.089Z,6.20
2017-08-16T14:06:31.208Z,8.40
2017-08-16T14:09:00.306Z,8.57
2017-08-16T14:11:29.439Z,7.67
2017-08-16T14:13:58.558Z,8.33
2017-08-16T14:16:27.682Z,9.90
2017-08-16T14:18:56.922Z,11.40
2017-08-16T14:21:26.038Z,8.40
2017-08-16T14:23:55.184Z,8.57
2017-08-16T14:26:24.319Z,10.33
2017-08-16T14:28:53.437Z,10.50
2017-08-16T14:31:23.230Z,8.93
2017-08-16T14:33:52.347Z,9.43
2017-08-16T14:36:21.452Z,8.00
2017-08-16T14:38:50.576Z,13.00
2017-08-16T14:41:19.688Z,8.80
2017-08-16T14:43:48.794Z,9.30
2017-08-16T14:46:17.913Z,8.70
2017-08-16T14:48:47.038Z,8.53
2017-08-16T14:51:16.160Z,8.50
2017-08-16T14:53:45.283Z,8.97
2017-08-16T14:56:14.399Z,8.20
2017-08-16T14:58:43.533Z,7.77
2017-08-16T15:01:12.663Z,7.77
2017-08-16T15:03:41.777Z,7.30
2017-08-16T15:06:10.941Z,12.73
2017-08-16T15:08:40.037Z,11.90
2017-08-16T15:11:09.198Z,8.60
2017-08-16T15:13:38.330Z,12.10
2017-08-16T15:16:07.443Z,8.47
2017-08-16T15:18:36.547Z,11.63
2017-08-16T15:21:05.665Z,8.87
2017-08-16T15:23:34.779Z,8.10
2017-08-16T15:26:03.904Z,11.80
2017-08-16T15:28:33.077Z,7.43
2017-08-16T15:31:02.284Z,8.07
2017-08-16T15:33:31.715Z,8.60
2017-08-16T15:36:00.812Z,8.10
2017-08-16T15:38:29.940Z,11.80
2017-08-16T15:40:59.058Z,10.83
2017-08-16T15:43:28.490Z,7.53
2017-08-16T15:45:57.636Z,9.30
2017-08-16T15:48:26.755Z,9.40
2017-08-16T15:50:56.094Z,8.40
2017-08-16T15:53:25.393Z,11.27
2017-08-16T15:55:54.511Z,8.50
2017-08-16T15:58:23.618Z,7.13
2017-08-16T16:00:52.744Z,7.53
2017-08-16T16:03:21.856Z,9.30
2017-08-16T16:05:51.002Z,7.17
2017-08-16T16:08:20.136Z,9.30
2017-08-16T16:10:49.249Z,7.90
2017-08-16T16:13:18.397Z,9.63
2017-08-16T16:15:47.512Z,6.27
2017-08-16T16:18:16.645Z,11.30
2017-08-16T16:20:45.767Z,8.90
2017-08-16T16:23:14.890Z,4.80
2017-08-16T16:25:44.039Z,6.73
2017-08-16T16:28:13.146Z,8.70
2017-08-16T16:30:42.289Z,9.27
2017-08-16T16:33:11.413Z,7.47
2017-08-16T16:35:40.529Z,7.60
2017-08-16T16:38:09.635Z,6.20
2017-08-16T16:40:38.769Z,12.33
2017-08-16T16:43:07.921Z,6.50
2017-08-16T16:45:37.029Z,7.67
2017-08-16T16:48:06.157Z,7.83
2017-08-16T16:50:35.274Z,8.23
2017-08-16T16:53:04.405Z,6.70
2017-08-16T16:55:33.514Z,7.57
2017-08-16T16:58:02.637Z,7.57
2017-08-16T17:00:31.748Z,11.27
2017-08-16T17:03:00.884Z,7.23
2017-08-16T17:05:29.980Z,9.17
2017-08-16T17:07:59.100Z,7.80
2017-08-16T17:10:28.211Z,7.83
2017-08-16T17:12:57.349Z,7.13
2017-08-16T17:15:27.320Z,10.23
2017-08-16T17:17:56.432Z,8.47
2017-08-16T17:20:25.561Z,9.57
2017-08-16T17:22:54.708Z,8.67
2017-08-16T17:25:23.832Z,9.57
2017-08-16T17:27:53.021Z,9.40
2017-08-16T17:30:22.152Z,7.90
2017-08-16T17:32:51.328Z,8.53
2017-08-16T17:35:20.431Z,10.33
2017-08-16T17:37:49.565Z,9.30
2017-08-16T17:40:18.676Z,9.30
2017-08-16T17:42:48.009Z,10.13
2017-08-16T17:45:17.144Z,11.53
2017-08-16T17:47:46.269Z,8.77
2017-08-16T17:50:15.392Z,7.77
2017-08-16T17:52:44.503Z,8.00
2017-08-16T17:55:13.632Z,7.37
2017-08-16T17:57:42.758Z,8.60
2017-08-16T18:00:11.876Z,9.33
2017-08-16T18:02:41.024Z,9.60
2017-08-16T18:05:10.157Z,9.20
2017-08-16T18:07:39.274Z,7.90
2017-08-16T18:10:08.385Z,7.00
2017-08-16T18:12:37.505Z,9.97
2017-08-16T18:15:06.615Z,9.80
2017-08-16T18:17:35.749Z,8.40
2017-08-16T18:20:04.868Z,10.00
2017-08-16T18:22:34.001Z,7.20
2017-08-16T18:25:03.106Z,7.87
2017-08-16T18:27:32.252Z,7.57
2017-08-16T18:30:01.392Z,9.50
2017-08-16T18:32:30.580Z,7.20
2017-08-16T18:34:59.744Z,5.93
2017-08-16T18:37:28.888Z,9.40
2017-08-16T18:39:58.003Z,7.33
2017-08-16T18:42:27.100Z,7.90
2017-08-16T18:44:56.218Z,9.40
2017-08-16T18:47:25.325Z,12.03
2017-08-16T18:49:54.455Z,7.80
2017-08-16T18:52:23.561Z,10.47
2017-08-16T18:54:52.696Z,11.10
2017-08-16T18:57:21.813Z,9.63
2017-08-16T18:59:50.941Z,8.90
2017-08-16T19:02:20.053Z,9.00
2017-08-16T19:04:49.168Z,12.30
2017-08-16T19:07:18.297Z,8.10
2017-08-16T19:09:47.725Z,11.50
2017-08-16T19:12:16.836Z,8.00
2017-08-16T19:14:45.968Z,7.20
2017-08-16T19:17:15.100Z,7.83
2017-08-16T19:19:44.236Z,7.27
2017-08-16T19:22:13.337Z,7.87
2017-08-16T19:24:42.468Z,10.03
2017-08-16T19:27:11.760Z,9.40
2017-08-16T19:29:40.956Z,7.73
2017-08-16T19:32:10.116Z,8.60
2017-08-16T19:34:39.282Z,8.03
2017-08-16T19:37:08.422Z,10.27
2017-08-16T19:39:37.557Z,7.60
2017-08-16T19:42:06.699Z,8.67
2017-08-16T19:44:35.884Z,8.93
2017-08-16T19:47:05.045Z,9.33
2017-08-16T19:49:34.190Z,9.83
2017-08-16T19:52:03.319Z,8.63
2017-08-16T19:54:32.455Z,11.20
2017-08-16T19:57:01.662Z,8.87
2017-08-16T19:59:30.777Z,11.17
2017-08-16T20:01:59.913Z,10.23
2017-08-16T20:04:29.032Z,14.40
2017-08-16T20:06:58.165Z,10.80
2017-08-16T20:09:27.301Z,14.63
2017-08-16T20:11:56.549Z,11.87
2017-08-16T20:14:25.671Z,10.70
2017-08-16T20:16:54.977Z,11.77
2017-08-16T20:19:24.266Z,10.83
2017-08-16T20:21:53.395Z,10.30
2017-08-16T20:24:22.532Z,11.43
2017-08-16T20:26:51.667Z,8.40
2017-08-16T20:29:20.796Z,11.83
2017-08-16T20:31:49.941Z,6.43
2017-08-16T20:34:19.053Z,8.80
2017-08-16T20:36:48.203Z,7.83
2017-08-16T20:39:17.320Z,6.50
2017-08-16T20:41:46.657Z,6.97
2017-08-16T20:44:15.752Z,7.20
2017-08-16T20:46:44.875Z,6.03
2017-08-16T20:49:14.152Z,6.60
2017-08-16T20:51:43.422Z,5.60
2017-08-16T20:54:12.547Z,7.17
2017-08-16T20:56:41.936Z,15.10
2017-08-16T20:59:11.102Z,6.90
2017-08-16T21:01:40.488Z,5.73
2017-08-16T21:04:09.647Z,12.50
2017-08-16T21:06:38.805Z,6.03
2017-08-16T21:09:08.216Z,8.20
2017-08-16T21:11:37.400Z,10.90
2017-08-16T21:14:06.535Z,7.93
2017-08-16T21:16:36.129Z,9.90
2017-08-16T21:19:05.248Z,8.40
2017-08-16T21:21:34.383Z,6.27
2017-08-16T21:24:03.542Z,7.27
2017-08-16T21:26:32.669Z,6.90
2017-08-16T21:29:01.832Z,6.83
2017-08-16T21:31:30.961Z,9.90
2017-08-16T21:34:00.234Z,8.50
2017-08-16T21:36:29.987Z,9.70
2017-08-16T21:38:59.117Z,11.07
2017-08-16T21:41:28.421Z,8.80
2017-08-16T21:43:57.531Z,7.33
2017-08-16T21:46:26.657Z,7.30
2017-08-16T21:48:56.642Z,6.67
2017-08-16T21:51:25.775Z,9.60
2017-08-16T21:53:54.909Z,7.43
2017-08-16T21:56:24.013Z,10.20
2017-08-16T21:58:53.356Z,12.00
2017-08-16T22:01:22.490Z,9.87
2017-08-16T22:03:51.846Z,10.23
2017-08-16T22:06:20.945Z,10.50
2017-08-16T22:08:50.232Z,12.97
2017-08-16T22:11:19.374Z,10.33
2017-08-16T22:13:48.484Z,9.33
2017-08-16T22:16:17.615Z,8.43
2017-08-16T22:18:46.736Z,16.90
2017-08-16T22:21:15.849Z,11.00
2017-08-16T22:23:44.969Z,9.83
2017-08-16T22:26:14.085Z,9.90
2017-08-16T22:28:43.213Z,10.50
2017-08-16T22:31:12.334Z,8.57
2017-08-16T22:33:42.105Z,10.87
2017-08-16T22:36:11.217Z,9.00
2017-08-16T22:38:40.325Z,10.07
2017-08-16T22:41:09.453Z,11.93
2017-08-16T22:43:38.565Z,15.30
2017-08-16T22:46:07.714Z,9.67
2017-08-16T22:48:36.854Z,9.43
2017-08-16T22:51:06.166Z,14.83
2017-08-16T22:53:35.314Z,15.90
2017-08-16T22:56:04.431Z,10.57
2017-08-16T22:58:33.581Z,17.60
2017-08-16T23:01:02.688Z,14.00
2017-08-16T23:03:31.817Z,15.27
2017-08-16T23:06:00.970Z,14.20
2017-08-16T23:08:30.095Z,11.67
2017-08-16T23:10:59.216Z,22.33
2017-08-16T23:13:28.350Z,23.30
2017-08-16T23:15:57.466Z,19.53
2017-08-16T23:18:26.588Z,13.93
2017-08-16T23:20:56.225Z,13.33
2017-08-16T23:23:25.337Z,14.93
2017-08-16T23:25:54.474Z,13.10
2017-08-16T23:28:23.588Z,13.90
2017-08-16T23:30:52.716Z,14.33
2017-08-16T23:33:21.998Z,16.87
2017-08-16T23:35:51.123Z,12.57
2017-08-16T23:38:20.234Z,14.57
2017-08-16T23:40:49.514Z,15.23
2017-08-16T23:43:18.636Z,12.30
2017-08-16T23:45:47.760Z,14.13
2017-08-16T23:48:16.882Z,15.07
2017-08-16T23:50:46.001Z,13.27
2017-08-16T23:53:15.138Z,12.43
2017-08-16T23:55:44.248Z,14.53
2017-08-16T23:58:13.381Z,15.13
